createdAt,value
2022-09-21T00:01:42.026Z,9.73
2022-09-21T00:04:10.815Z,9.30
2022-09-21T00:06:39.486Z,9.57
2022-09-21T00:09:09.415Z,9.90
2022-09-21T00:11:38.100Z,10.67
2022-09-21T00:14:10.608Z,12.17
2022-09-21T00:16:40.434Z,9.87
2022-09-21T00:19:09.691Z,14.57
2022-09-21T00:21:39.182Z,11.30
2022-09-21T00:24:08.189Z,7.23
2022-09-21T00:26:36.976Z,8.73
2022-09-21T00:29:05.920Z,7.40
2022-09-21T00:31:36.172Z,6.50
2022-09-21T00:34:07.674Z,14.47
2022-09-21T00:36:36.828Z,14.83
2022-09-21T00:39:05.472Z,8.83
2022-09-21T00:41:34.723Z,10.27
2022-09-21T00:44:27.159Z,8.93
2022-09-21T00:46:58.928Z,7.30
2022-09-21T00:49:28.521Z,7.83
2022-09-21T00:51:58.335Z,7.90
2022-09-21T00:54:28.707Z,9.33
2022-09-21T00:56:59.800Z,6.17
2022-09-21T00:59:30.354Z,9.07
2022-09-21T01:02:00.811Z,10.30
2022-09-21T01:04:30.016Z,6.00
2022-09-21T01:07:00.425Z,11.13
2022-09-21T01:09:29.447Z,6.00
2022-09-21T01:12:06.353Z,8.30
2022-09-21T01:14:51.440Z,11.20
2022-09-21T01:17:25.947Z,8.13
2022-09-21T01:20:18.635Z,7.83
2022-09-21T01:22:58.517Z,7.67
2022-09-21T01:25:33.050Z,6.90
2022-09-21T01:28:09.648Z,8.20
2022-09-21T01:30:44.647Z,5.67
2022-09-21T01:33:21.750Z,7.73
2022-09-21T01:35:53.709Z,9.70
2022-09-21T01:38:25.575Z,14.00
2022-09-21T01:40:56.961Z,8.10
2022-09-21T01:43:28.141Z,10.23
2022-09-21T01:46:02.269Z,14.17
2022-09-21T01:48:35.302Z,13.80
2022-09-21T01:51:07.810Z,19.17
2022-09-21T01:53:40.243Z,10.07
2022-09-21T01:56:11.970Z,8.40
2022-09-21T01:58:43.640Z,8.50
2022-09-21T02:01:16.352Z,6.00
2022-09-21T02:03:47.548Z,6.77
2022-09-21T02:06:16.665Z,7.23
2022-09-21T02:08:45.703Z,9.37
2022-09-21T02:11:14.531Z,7.13
2022-09-21T02:13:45.853Z,10.80
2022-09-21T02:16:33.275Z,8.43
2022-09-21T02:19:12.563Z,8.10
2022-09-21T02:21:50.190Z,8.47
2022-09-21T02:24:25.278Z,11.03
2022-09-21T02:26:56.431Z,8.50
2022-09-21T02:29:28.028Z,8.43
2022-09-21T02:32:05.186Z,11.13
2022-09-21T02:34:36.625Z,8.83
2022-09-21T02:37:10.304Z,6.67
2022-09-21T02:39:46.259Z,7.43
2022-09-21T02:42:18.224Z,8.30
2022-09-21T02:44:52.271Z,6.60
2022-09-21T02:47:25.583Z,7.80
2022-09-21T02:49:57.143Z,8.67
2022-09-21T02:52:26.459Z,6.27
2022-09-21T02:54:55.886Z,6.60
2022-09-21T02:57:24.869Z,9.00
2022-09-21T02:59:53.606Z,6.70
2022-09-21T03:02:23.807Z,7.50
2022-09-21T03:04:52.415Z,7.03
2022-09-21T03:07:21.049Z,11.10
2022-09-21T03:09:49.968Z,6.77
2022-09-21T03:12:18.715Z,12.10
2022-09-21T03:14:47.407Z,9.10
2022-09-21T03:17:16.139Z,8.80
2022-09-21T03:19:46.216Z,11.30
2022-09-21T03:22:14.899Z,20.87
2022-09-21T03:24:46.565Z,7.87
2022-09-21T03:27:15.564Z,7.80
2022-09-21T03:29:44.360Z,7.50
2022-09-21T03:32:14.346Z,11.60
2022-09-21T03:34:43.467Z,11.07
2022-09-21T03:37:13.476Z,10.33
2022-09-21T03:39:42.109Z,6.30
2022-09-21T03:42:10.970Z,9.47
2022-09-21T03:44:41.057Z,7.93
2022-09-21T03:47:09.695Z,9.67
2022-09-21T03:49:38.780Z,12.83
2022-09-21T03:52:07.475Z,8.40
2022-09-21T03:54:37.636Z,9.10
2022-09-21T03:57:06.422Z,18.30
2022-09-21T03:59:35.482Z,6.57
2022-09-21T04:02:04.290Z,8.57
2022-09-21T04:04:32.930Z,6.43
2022-09-21T04:07:01.699Z,10.20
2022-09-21T04:09:31.314Z,8.70
2022-09-21T04:12:01.350Z,8.50
2022-09-21T04:14:30.036Z,8.33
2022-09-21T04:16:58.700Z,10.93
2022-09-21T04:19:27.424Z,11.03
2022-09-21T04:21:56.309Z,10.50
2022-09-21T04:24:24.978Z,8.13
2022-09-21T04:26:53.813Z,9.10
2022-09-21T04:29:23.877Z,10.10
2022-09-21T04:31:52.827Z,6.00
2022-09-21T04:34:21.602Z,10.83
2022-09-21T04:36:50.288Z,8.73
2022-09-21T04:39:18.966Z,8.43
2022-09-21T04:41:47.782Z,11.87
2022-09-21T04:44:16.557Z,6.00
2022-09-21T04:46:46.573Z,16.20
2022-09-21T04:49:15.336Z,14.00
2022-09-21T04:51:44.385Z,8.30
2022-09-21T04:54:14.100Z,14.07
2022-09-21T04:56:42.778Z,9.00
2022-09-21T04:59:11.589Z,8.83
2022-09-21T05:01:40.329Z,6.90
2022-09-21T05:04:10.348Z,9.40
2022-09-21T05:06:39.042Z,8.40
2022-09-21T05:09:25.102Z,10.47
2022-09-21T05:11:54.138Z,5.87
2022-09-21T05:14:22.784Z,9.13
2022-09-21T05:16:51.725Z,16.80
2022-09-21T05:19:22.810Z,9.70
2022-09-21T05:21:51.477Z,11.60
2022-09-21T05:24:20.159Z,12.90
2022-09-21T05:26:49.300Z,8.77
2022-09-21T05:29:18.664Z,12.70
2022-09-21T05:31:49.946Z,16.13
2022-09-21T05:34:39.756Z,13.70
2022-09-21T05:37:12.089Z,24.93
2022-09-21T05:39:41.512Z,12.90
2022-09-21T05:42:12.410Z,16.50
2022-09-21T05:44:41.591Z,12.00
2022-09-21T05:47:20.163Z,15.33
2022-09-21T05:49:56.670Z,9.53
2022-09-21T05:52:28.963Z,11.23
2022-09-21T05:55:04.473Z,8.87
2022-09-21T05:57:42.620Z,10.83
2022-09-21T06:00:17.257Z,13.80
2022-09-21T06:02:55.183Z,12.57
2022-09-21T06:05:25.918Z,10.60
2022-09-21T06:07:54.878Z,46.73
2022-09-21T06:10:25.293Z,13.17
2022-09-21T06:12:53.883Z,12.07
2022-09-21T06:15:22.681Z,13.10
2022-09-21T06:17:51.657Z,14.10
2022-09-21T06:20:20.297Z,11.97
2022-09-21T06:22:50.365Z,11.23
2022-09-21T06:25:20.466Z,12.13
2022-09-21T06:27:49.147Z,8.00
2022-09-21T06:30:17.961Z,8.70
2022-09-21T06:32:46.705Z,9.13
2022-09-21T06:35:15.297Z,9.50
2022-09-21T06:37:44.235Z,5.70
2022-09-21T06:40:14.469Z,12.40
2022-09-21T06:42:43.327Z,16.47
2022-09-21T06:45:12.252Z,6.43
2022-09-21T06:47:40.880Z,18.67
2022-09-21T06:50:10.015Z,10.10
2022-09-21T06:52:40.536Z,13.60
2022-09-21T06:55:10.781Z,17.00
2022-09-21T06:57:40.904Z,8.23
2022-09-21T07:00:13.394Z,12.60
2022-09-21T07:02:44.467Z,8.10
2022-09-21T07:05:13.853Z,7.83
2022-09-21T07:07:42.716Z,8.00
2022-09-21T07:10:15.745Z,4.80
2022-09-21T07:12:51.292Z,11.33
2022-09-21T07:15:21.396Z,8.27
2022-09-21T07:17:52.067Z,5.83
2022-09-21T07:20:21.568Z,7.00
2022-09-21T07:22:50.457Z,8.33
2022-09-21T07:25:19.522Z,8.50
2022-09-21T07:27:49.899Z,7.13
2022-09-21T07:30:18.750Z,5.80
2022-09-21T07:32:47.459Z,10.10
2022-09-21T07:35:16.256Z,6.63
2022-09-21T07:37:44.997Z,6.53
2022-09-21T07:40:13.646Z,6.67
2022-09-21T07:42:45.136Z,6.03
2022-09-21T07:45:15.289Z,7.93
2022-09-21T07:47:43.946Z,6.87
2022-09-21T07:50:12.709Z,8.50
2022-09-21T07:52:41.334Z,6.00
2022-09-21T07:55:10.078Z,5.90
2022-09-21T07:57:56.226Z,7.07
2022-09-21T08:00:29.119Z,5.83
2022-09-21T08:02:57.761Z,6.53
2022-09-21T08:05:27.663Z,7.77
2022-09-21T08:07:56.806Z,6.63
2022-09-21T08:10:28.183Z,9.00
2022-09-21T08:12:57.442Z,5.97
2022-09-21T08:15:47.333Z,7.00
2022-09-21T08:18:17.114Z,6.23
2022-09-21T08:20:45.940Z,8.20
2022-09-21T08:23:16.737Z,4.90
2022-09-21T08:25:45.430Z,9.10
2022-09-21T08:28:14.717Z,4.77
2022-09-21T08:30:44.834Z,9.10
2022-09-21T08:33:14.706Z,5.20
2022-09-21T08:35:43.632Z,6.67
2022-09-21T08:38:12.234Z,4.90
2022-09-21T08:40:42.097Z,5.17
2022-09-21T08:43:12.905Z,13.20
2022-09-21T08:45:45.243Z,10.90
2022-09-21T08:48:18.559Z,6.43
2022-09-21T08:50:50.175Z,4.60
2022-09-21T08:53:21.576Z,8.90
2022-09-21T08:55:50.326Z,6.30
2022-09-21T08:58:24.257Z,7.47
2022-09-21T09:01:10.297Z,6.17
2022-09-21T09:03:54.745Z,5.40
2022-09-21T09:06:31.726Z,8.37
2022-09-21T09:09:19.291Z,5.83
2022-09-21T09:12:01.106Z,2.90
2022-09-21T09:14:41.814Z,4.23
2022-09-21T09:17:24.700Z,4.90
2022-09-21T09:19:59.296Z,6.57
2022-09-21T09:22:31.242Z,7.77
2022-09-21T09:25:02.418Z,3.67
2022-09-21T09:27:34.523Z,5.17
2022-09-21T09:30:06.450Z,5.60
2022-09-21T09:32:40.600Z,1.70
2022-09-21T09:35:18.669Z,4.07
2022-09-21T09:37:51.675Z,1.30
2022-09-21T09:40:28.295Z,4.17
2022-09-21T09:43:04.931Z,2.70
2022-09-21T09:45:40.809Z,2.00
2022-09-21T09:48:42.083Z,3.33
2022-09-21T09:51:13.010Z,2.93
2022-09-21T09:53:41.821Z,2.80
2022-09-21T09:56:11.978Z,3.00
2022-09-21T09:58:43.610Z,1.10
2022-09-21T10:01:39.358Z,2.60
2022-09-21T10:04:11.057Z,1.93
2022-09-21T10:06:45.832Z,2.10
2022-09-21T10:09:26.570Z,1.97
2022-09-21T10:11:57.928Z,1.57
2022-09-21T10:14:29.572Z,1.83
2022-09-21T10:17:02.810Z,2.80
2022-09-21T10:19:33.249Z,1.73
2022-09-21T10:22:03.395Z,1.83
2022-09-21T10:24:34.417Z,3.03
2022-09-21T10:27:06.393Z,3.33
2022-09-21T10:29:43.073Z,1.03
2022-09-21T10:32:23.713Z,2.20
2022-09-21T10:35:15.460Z,2.03
2022-09-21T10:37:46.347Z,2.97
2022-09-21T10:40:26.673Z,5.97
2022-09-21T10:42:58.505Z,5.23
2022-09-21T10:45:28.665Z,1.40
2022-09-21T10:47:59.114Z,2.60
2022-09-21T10:50:31.095Z,3.53
2022-09-21T10:53:02.718Z,4.13
2022-09-21T10:55:32.939Z,2.83
2022-09-21T10:58:01.890Z,1.30
2022-09-21T11:00:35.951Z,5.60
2022-09-21T11:03:28.496Z,1.40
2022-09-21T11:06:02.350Z,1.10
2022-09-21T11:08:35.384Z,1.73
2022-09-21T11:11:21.428Z,2.07
2022-09-21T11:13:54.440Z,2.43
2022-09-21T11:16:28.828Z,1.80
2022-09-21T11:19:03.296Z,6.23
2022-09-21T11:21:36.908Z,2.37
2022-09-21T11:24:11.878Z,2.40
2022-09-21T11:26:44.969Z,1.37
2022-09-21T11:29:18.418Z,1.30
2022-09-21T11:32:05.835Z,5.53
2022-09-21T11:34:46.944Z,2.33
2022-09-21T11:37:24.954Z,4.17
2022-09-21T11:40:04.915Z,3.13
2022-09-21T11:42:47.917Z,3.70
2022-09-21T11:45:28.566Z,3.13
2022-09-21T11:48:07.536Z,1.63
2022-09-21T11:50:46.187Z,1.47
2022-09-21T11:53:32.539Z,2.27
2022-09-21T11:56:13.963Z,0.77
2022-09-21T11:58:51.524Z,1.10
2022-09-21T12:01:42.185Z,2.73
2022-09-21T12:04:29.776Z,3.97
2022-09-21T12:07:08.273Z,2.60
2022-09-21T12:10:11.748Z,1.40
2022-09-21T12:12:43.579Z,1.40
2022-09-21T12:15:18.509Z,3.23
2022-09-21T12:17:55.294Z,2.40
2022-09-21T12:20:29.459Z,1.90
2022-09-21T12:23:01.641Z,2.90
2022-09-21T12:25:36.080Z,2.60
2022-09-21T12:28:10.109Z,4.20
2022-09-21T12:30:42.070Z,0.80
2022-09-21T12:33:24.086Z,3.73
2022-09-21T12:35:57.261Z,2.20
2022-09-21T12:38:31.183Z,2.00
2022-09-21T12:41:07.528Z,1.90
2022-09-21T12:43:39.414Z,2.77
2022-09-21T12:46:13.348Z,0.80
2022-09-21T12:48:42.441Z,1.50
2022-09-21T12:51:15.616Z,1.57
2022-09-21T12:53:50.895Z,1.87
2022-09-21T12:56:30.521Z,2.60
2022-09-21T12:59:16.825Z,2.20
2022-09-21T13:01:54.825Z,3.13
2022-09-21T13:04:38.777Z,1.93
2022-09-21T13:07:52.477Z,1.43
2022-09-21T13:10:23.682Z,1.83
2022-09-21T13:12:59.375Z,6.80
2022-09-21T13:15:31.126Z,2.30
2022-09-21T13:18:01.855Z,1.00
2022-09-21T13:20:37.805Z,1.57
2022-09-21T13:23:07.560Z,3.87
2022-09-21T13:25:37.639Z,2.10
2022-09-21T13:28:21.386Z,1.83
2022-09-21T13:30:51.510Z,1.40
2022-09-21T13:34:06.603Z,2.63
2022-09-21T13:36:36.487Z,1.93
2022-09-21T13:39:15.600Z,1.63
2022-09-21T13:42:02.260Z,2.70
2022-09-21T13:44:43.399Z,1.57
2022-09-21T13:47:14.767Z,0.90
2022-09-21T13:49:46.781Z,0.80
2022-09-21T13:52:27.935Z,1.23
2022-09-21T13:55:00.914Z,1.27
2022-09-21T13:57:40.075Z,3.73
2022-09-21T14:00:46.310Z,1.23
2022-09-21T14:03:25.320Z,1.20
2022-09-21T14:05:56.046Z,1.10
2022-09-21T14:08:28.142Z,1.57
2022-09-21T14:10:59.002Z,2.07
2022-09-21T14:13:32.492Z,1.90
2022-09-21T14:16:52.839Z,1.07
2022-09-21T14:20:05.941Z,2.23
2022-09-21T14:22:42.634Z,2.90
2022-09-21T14:25:30.628Z,1.43
2022-09-21T14:28:02.247Z,1.33
2022-09-21T14:30:35.707Z,1.03
2022-09-21T14:33:22.360Z,2.30
2022-09-21T14:35:52.756Z,2.10
2022-09-21T14:38:24.558Z,1.50
2022-09-21T14:40:54.372Z,0.83
2022-09-21T14:43:27.258Z,1.60
2022-09-21T14:46:12.635Z,1.00
2022-09-21T14:48:50.391Z,1.40
2022-09-21T14:51:23.710Z,1.00
2022-09-21T14:54:05.779Z,1.73
2022-09-21T14:57:00.183Z,2.40
2022-09-21T14:59:43.853Z,3.20
2022-09-21T15:02:20.558Z,3.07
2022-09-21T15:05:13.739Z,3.80
2022-09-21T15:08:07.241Z,1.20
2022-09-21T15:10:59.172Z,1.70
2022-09-21T15:13:51.728Z,1.20
2022-09-21T15:16:40.262Z,1.73
2022-09-21T15:19:16.185Z,1.10
2022-09-21T15:21:50.035Z,3.63
2022-09-21T15:24:21.593Z,0.97
2022-09-21T15:26:52.651Z,1.00
2022-09-21T15:29:29.465Z,0.80
2022-09-21T15:32:00.591Z,4.43
2022-09-21T15:34:29.669Z,1.00
2022-09-21T15:37:09.218Z,1.17
2022-09-21T15:39:41.202Z,2.87
2022-09-21T15:42:20.290Z,1.97
2022-09-21T15:44:50.748Z,0.83
2022-09-21T15:47:21.874Z,1.77
2022-09-21T15:49:52.141Z,1.23
2022-09-21T15:52:29.128Z,1.30
2022-09-21T15:55:00.419Z,0.80
2022-09-21T15:57:38.242Z,4.40
2022-09-21T16:00:24.277Z,1.73
2022-09-21T16:03:04.271Z,6.30
2022-09-21T16:05:47.531Z,1.70
2022-09-21T16:08:27.809Z,2.50
2022-09-21T16:11:14.172Z,1.93
2022-09-21T16:14:01.529Z,1.20
2022-09-21T16:16:30.887Z,2.30
2022-09-21T16:19:00.668Z,1.37
2022-09-21T16:21:32.849Z,5.33
2022-09-21T16:24:13.661Z,1.73
2022-09-21T16:26:44.053Z,0.90
2022-09-21T16:29:24.276Z,1.10
2022-09-21T16:31:53.952Z,1.70
2022-09-21T16:34:36.800Z,1.00
2022-09-21T16:37:24.479Z,3.40
2022-09-21T16:39:55.431Z,1.67
2022-09-21T16:42:27.992Z,1.10
2022-09-21T16:44:56.705Z,1.00
2022-09-21T16:47:26.787Z,1.70
2022-09-21T16:50:01.429Z,1.73
2022-09-21T16:52:31.552Z,1.77
2022-09-21T16:55:02.051Z,1.60
2022-09-21T16:57:32.797Z,4.63
2022-09-21T17:00:02.314Z,1.00
2022-09-21T17:02:31.381Z,1.30
2022-09-21T17:05:00.393Z,1.80
2022-09-21T17:07:29.078Z,4.40
2022-09-21T17:09:58.032Z,2.67
2022-09-21T17:12:28.738Z,2.50
2022-09-21T17:14:59.978Z,1.53
2022-09-21T17:17:29.605Z,2.83
2022-09-21T17:19:58.266Z,5.80
2022-09-21T17:22:30.011Z,1.50
2022-09-21T17:24:58.703Z,1.47
2022-09-21T17:27:29.086Z,5.53
2022-09-21T17:30:01.080Z,2.60
2022-09-21T17:32:30.011Z,1.63
2022-09-21T17:35:01.996Z,2.33
2022-09-21T17:37:32.309Z,2.90
2022-09-21T17:40:01.406Z,3.23
2022-09-21T17:42:37.132Z,3.07
2022-09-21T17:45:13.449Z,2.73
2022-09-21T17:47:43.225Z,3.07
2022-09-21T17:50:20.567Z,4.97
2022-09-21T17:53:07.136Z,2.33
2022-09-21T17:55:36.323Z,3.20
2022-09-21T17:58:12.133Z,11.20
2022-09-21T18:00:48.134Z,19.03
2022-09-21T18:03:24.924Z,13.50
2022-09-21T18:05:59.443Z,14.93
2022-09-21T18:08:29.228Z,16.60
2022-09-21T18:11:06.501Z,15.70
2022-09-21T18:13:48.129Z,14.52
2022-09-21T18:16:27.726Z,7.50
2022-09-21T18:19:04.946Z,8.18
2022-09-21T18:21:36.634Z,5.93
2022-09-21T18:24:16.257Z,7.57
2022-09-21T18:26:45.502Z,10.73
2022-09-21T18:29:41.793Z,11.37
2022-09-21T18:32:29.690Z,11.17
2022-09-21T18:35:10.551Z,12.43
2022-09-21T18:37:48.447Z,8.90
2022-09-21T18:40:23.415Z,10.03
2022-09-21T18:42:55.824Z,9.20
2022-09-21T18:45:31.953Z,8.77
2022-09-21T18:48:13.931Z,10.23
2022-09-21T18:50:47.365Z,8.80
2022-09-21T18:53:24.412Z,10.57
2022-09-21T18:55:54.024Z,7.53
2022-09-21T18:58:23.614Z,13.17
2022-09-21T19:00:54.744Z,11.00
2022-09-21T19:03:24.753Z,9.40
2022-09-21T19:06:05.602Z,12.90
2022-09-21T19:08:39.000Z,12.00
2022-09-21T19:11:13.404Z,12.40
2022-09-21T19:13:48.327Z,15.37
2022-09-21T19:16:24.226Z,6.70
2022-09-21T19:19:01.519Z,7.60
2022-09-21T19:21:38.487Z,9.10
2022-09-21T19:24:12.308Z,8.90
2022-09-21T19:26:50.045Z,6.23
2022-09-21T19:29:31.794Z,5.70
2022-09-21T19:32:02.453Z,5.77
2022-09-21T19:34:31.643Z,9.13
2022-09-21T19:37:05.642Z,6.90
2022-09-21T19:39:38.408Z,5.83
2022-09-21T19:42:18.073Z,8.03
2022-09-21T19:44:59.972Z,15.63
2022-09-21T19:47:31.738Z,26.23
2022-09-21T19:50:12.059Z,12.13
2022-09-21T19:52:41.474Z,11.27
2022-09-21T19:55:33.356Z,4.63
2022-09-21T19:58:19.890Z,6.43
2022-09-21T20:00:51.779Z,5.87
2022-09-21T20:03:31.221Z,6.23
2022-09-21T20:06:04.652Z,11.90
2022-09-21T20:08:37.911Z,6.40
2022-09-21T20:11:11.086Z,10.63
2022-09-21T20:13:57.814Z,4.10
2022-09-21T20:16:40.685Z,5.47
2022-09-21T20:19:18.930Z,5.70
2022-09-21T20:21:53.147Z,5.07
2022-09-21T20:24:27.135Z,4.43
2022-09-21T20:26:56.635Z,5.20
2022-09-21T20:29:28.529Z,4.87
2022-09-21T20:32:00.346Z,7.47
2022-09-21T20:34:31.539Z,6.87
2022-09-21T20:37:00.662Z,6.33
2022-09-21T20:39:29.456Z,3.13
2022-09-21T20:41:58.181Z,6.93
2022-09-21T20:44:27.021Z,5.63
2022-09-21T20:46:55.847Z,7.77
2022-09-21T20:49:24.774Z,8.73
2022-09-21T20:51:55.212Z,9.10
2022-09-21T20:54:24.198Z,5.93
2022-09-21T20:56:53.094Z,5.00
2022-09-21T20:59:22.044Z,4.20
2022-09-21T21:01:50.896Z,3.90
2022-09-21T21:04:19.828Z,4.00
2022-09-21T21:06:49.155Z,6.93
2022-09-21T21:09:19.297Z,7.67
2022-09-21T21:11:48.068Z,6.17
2022-09-21T21:14:16.831Z,5.37
2022-09-21T21:16:46.231Z,8.70
2022-09-21T21:19:15.595Z,5.07
2022-09-21T21:21:44.362Z,4.97
2022-09-21T21:24:31.480Z,4.57
2022-09-21T21:27:03.052Z,5.33
2022-09-21T21:29:32.548Z,7.17
2022-09-21T21:32:02.391Z,7.00
2022-09-21T21:34:31.303Z,10.97
2022-09-21T21:37:00.131Z,5.37
2022-09-21T21:39:28.905Z,4.10
2022-09-21T21:41:57.753Z,8.07
2022-09-21T21:44:28.215Z,7.47
2022-09-21T21:47:10.079Z,5.90
2022-09-21T21:49:46.760Z,3.83
2022-09-21T21:52:15.946Z,5.40
2022-09-21T21:54:44.708Z,4.30
2022-09-21T21:57:15.042Z,4.80
2022-09-21T21:59:45.163Z,8.83
2022-09-21T22:02:13.931Z,5.73
2022-09-21T22:04:42.964Z,6.63
2022-09-21T22:07:11.700Z,5.23
2022-09-21T22:09:40.410Z,5.90
2022-09-21T22:14:38.818Z,5.90
2022-09-21T22:17:08.835Z,4.03
2022-09-21T22:19:38.070Z,5.20
2022-09-21T22:22:06.714Z,3.23
2022-09-21T22:24:35.835Z,3.80
2022-09-21T22:27:04.694Z,8.53
2022-09-21T22:29:33.399Z,8.40
2022-09-21T22:32:02.555Z,5.30
2022-09-21T22:34:32.693Z,12.30
2022-09-21T22:37:01.499Z,3.37
2022-09-21T22:39:30.982Z,4.13
2022-09-21T22:42:00.068Z,7.57
2022-09-21T22:44:29.411Z,3.53
2022-09-21T22:46:58.192Z,4.00
2022-09-21T22:49:26.887Z,3.80
2022-09-21T22:51:56.924Z,7.13
2022-09-21T22:54:26.589Z,8.93
2022-09-21T22:56:55.282Z,5.33
2022-09-21T22:59:23.932Z,5.63
2022-09-21T23:01:52.628Z,5.57
2022-09-21T23:04:21.974Z,3.50
2022-09-21T23:06:51.200Z,6.70
2022-09-21T23:09:22.132Z,8.63
2022-09-21T23:11:53.601Z,8.03
2022-09-21T23:14:23.441Z,4.80
2022-09-21T23:16:52.849Z,4.77
2022-09-21T23:19:21.837Z,3.83
2022-09-21T23:21:51.366Z,5.23
2022-09-21T23:24:21.952Z,5.17
2022-09-21T23:29:41.895Z,6.43
2022-09-21T23:32:10.465Z,5.17
2022-09-21T23:34:39.035Z,6.03
2022-09-21T23:37:07.665Z,8.83
2022-09-21T23:39:37.815Z,6.10
2022-09-21T23:42:06.480Z,6.23
2022-09-21T23:44:35.039Z,4.10
2022-09-21T23:47:03.790Z,4.33
2022-09-21T23:49:32.369Z,6.40
2022-09-21T23:52:00.972Z,4.13
2022-09-21T23:54:29.535Z,4.00
2022-09-21T23:56:59.438Z,3.63
2022-09-21T23:59:27.992Z,4.50
